Time;durP1;ratioP1;P1;durP2;ratioP2;P2;SDS_P1;SDS_P2;PMS_P1;PMS_P2;Temp;Humidity;BMP_temperature;BMP_pressure;BME280_temperature;BME280_humidity;BME280_pressure;Samples;Min_cycle;Max_cycle;Signal;HPM_P1;HPM_P2
2022/10/09 00:01:11;;;;;;;20.17;13.20;;;13.90;99.90;;;;;;5108556;28;20020;-79
2022/10/09 00:03:39;;;;;;;24.20;12.85;;;13.90;99.90;;;;;;5113924;28;20065;-78
2022/10/09 00:06:06;;;;;;;18.40;12.70;;;13.90;99.90;;;;;;5106082;28;20379;-79
2022/10/09 00:08:34;;;;;;;28.20;13.45;;;13.80;99.90;;;;;;5101838;28;20364;-79
2022/10/09 00:11:05;;;;;;;20.67;14.80;;;13.80;99.90;;;;;;5107441;28;20079;-79
2022/10/09 00:13:31;;;;;;;21.25;13.75;;;13.80;99.90;;;;;;5115738;28;20132;-80
2022/10/09 00:15:56;;;;;;;21.10;14.50;;;13.80;99.90;;;;;;5115911;28;20403;-80
2022/10/09 00:18:22;;;;;;;23.15;14.45;;;13.80;99.90;;;;;;5108282;28;20078;-79
2022/10/09 00:20:48;;;;;;;36.08;14.35;;;13.80;99.90;;;;;;5115349;28;20024;-79
2022/10/09 00:23:16;;;;;;;22.70;14.30;;;13.70;99.90;;;;;;5116023;28;20095;-79
2022/10/09 00:25:56;;;;;;;18.60;13.05;;;13.80;99.90;;;;;;5145642;27;20018;-79
2022/10/09 00:28:24;;;;;;;20.15;13.68;;;13.70;99.90;;;;;;5115191;28;20128;-79
2022/10/09 00:30:50;;;;;;;22.15;13.60;;;13.70;99.90;;;;;;5146054;27;20051;-79
2022/10/09 00:33:16;;;;;;;19.50;13.95;;;13.70;99.90;;;;;;5102809;28;20077;-79
2022/10/09 00:35:42;;;;;;;19.20;12.55;;;13.70;99.90;;;;;;5102576;28;20040;-79
2022/10/09 00:38:09;;;;;;;20.67;14.82;;;13.60;99.90;;;;;;5138111;27;20060;-79
2022/10/09 00:40:36;;;;;;;21.38;15.07;;;13.70;99.90;;;;;;5119587;28;20041;-79
2022/10/09 00:43:03;;;;;;;19.15;13.57;;;13.70;99.90;;;;;;5111795;28;20051;-79
2022/10/09 00:45:30;;;;;;;19.98;11.65;;;13.60;99.90;;;;;;5109689;28;20396;-79
2022/10/09 00:48:00;;;;;;;23.17;14.10;;;13.50;99.90;;;;;;5115815;27;20024;-79
2022/10/09 00:50:37;;;;;;;19.88;15.18;;;13.50;99.90;;;;;;5108784;28;20043;-79
2022/10/09 00:53:02;;;;;;;23.75;15.60;;;13.50;99.90;;;;;;5113563;28;20116;-79
2022/10/09 00:55:29;;;;;;;24.70;14.82;;;13.50;99.90;;;;;;5115622;28;20024;-79
2022/10/09 00:57:58;;;;;;;18.33;14.32;;;13.50;99.90;;;;;;5118004;28;20062;-79
2022/10/09 01:00:25;;;;;;;23.52;13.85;;;13.40;99.90;;;;;;5104416;28;20024;-79
2022/10/09 01:02:52;;;;;;;17.00;15.18;;;13.40;99.90;;;;;;5117902;28;20402;-79
2022/10/09 01:05:18;;;;;;;25.92;14.82;;;13.40;99.90;;;;;;5113002;28;20021;-79
2022/10/09 01:08:00;;;;;;;22.58;13.80;;;13.40;99.90;;;;;;5111884;28;20498;-79
2022/10/09 01:10:43;;;;;;;18.48;14.48;;;13.30;99.90;;;;;;5112605;28;20088;-79
2022/10/09 01:13:30;;;;;;;20.77;14.88;;;13.30;99.90;;;;;;5118565;28;20028;-79
2022/10/09 01:16:05;;;;;;;18.45;13.52;;;13.30;99.90;;;;;;5119221;28;20100;-79
2022/10/09 01:18:47;;;;;;;21.38;13.65;;;13.30;99.90;;;;;;5116254;28;20070;-79
2022/10/09 01:21:16;;;;;;;18.23;14.30;;;13.20;99.90;;;;;;5108741;28;20028;-79
2022/10/09 01:24:11;;;;;;;15.88;12.73;;;13.20;99.90;;;;;;5119162;28;20371;-79
2022/10/09 01:26:51;;;;;;;19.08;13.52;;;13.20;99.90;;;;;;5118756;28;20065;-79
2022/10/09 01:29:20;;;;;;;21.35;14.05;;;13.10;99.90;;;;;;5119007;28;20114;-79
2022/10/09 01:31:49;;;;;;;23.98;14.93;;;13.10;99.90;;;;;;5118190;28;20064;-79
2022/10/09 01:34:18;;;;;;;20.35;13.88;;;13.10;99.90;;;;;;5118659;28;20031;-79
2022/10/09 01:36:45;;;;;;;21.27;15.57;;;13.10;99.90;;;;;;5118252;28;20027;-79
2022/10/09 01:39:18;;;;;;;23.67;15.73;;;13.00;99.90;;;;;;5107104;28;20024;-79
2022/10/09 01:41:47;;;;;;;26.45;15.20;;;13.00;99.90;;;;;;5116146;28;20019;-79
2022/10/09 01:44:28;;;;;;;23.15;15.13;;;13.00;99.90;;;;;;5118375;28;20472;-79
2022/10/09 01:46:54;;;;;;;20.45;14.00;;;13.00;99.90;;;;;;5113216;28;20019;-79
2022/10/09 01:49:37;;;;;;;27.35;15.45;;;12.90;99.90;;;;;;5110960;28;20419;-80
2022/10/09 01:52:20;;;;;;;25.83;15.32;;;12.90;99.90;;;;;;5108591;28;20076;-79
2022/10/09 01:55:23;;;;;;;24.98;15.52;;;12.90;99.90;;;;;;5116599;28;20026;-80
2022/10/09 01:58:15;;;;;;;17.73;14.85;;;12.80;99.90;;;;;;5115807;28;20020;-79
2022/10/09 02:00:47;;;;;;;24.95;16.67;;;12.80;99.90;;;;;;5099972;28;20032;-79
2022/10/09 02:03:15;;;;;;;27.38;16.63;;;12.90;99.90;;;;;;5101442;28;20023;-79
2022/10/09 02:05:42;;;;;;;28.85;17.08;;;12.90;99.90;;;;;;5103509;28;20031;-79
2022/10/09 02:08:16;;;;;;;24.35;14.35;;;12.90;99.90;;;;;;5105856;28;20016;-79
2022/10/09 02:10:45;;;;;;;18.70;13.75;;;12.80;99.90;;;;;;5113223;28;20105;-79
2022/10/09 02:13:11;;;;;;;37.53;15.32;;;12.80;99.90;;;;;;5114591;28;20027;-79
2022/10/09 02:15:48;;;;;;;23.10;15.15;;;12.80;99.90;;;;;;5117877;28;20028;-79
2022/10/09 02:18:18;;;;;;;17.98;14.50;;;12.80;99.90;;;;;;5115006;28;20102;-80
2022/10/09 02:20:49;;;;;;;22.92;15.65;;;12.80;99.90;;;;;;5117364;28;20479;-80
2022/10/09 02:23:17;;;;;;;17.30;14.57;;;12.70;99.90;;;;;;5113605;28;20379;-79
2022/10/09 02:25:43;;;;;;;25.10;15.70;;;12.80;99.90;;;;;;5115948;28;20024;-79
2022/10/09 02:28:09;;;;;;;19.05;15.23;;;12.70;99.90;;;;;;5117179;28;20030;-79
2022/10/09 02:30:57;;;;;;;27.77;15.52;;;12.70;99.90;;;;;;5117780;28;20024;-79
2022/10/09 02:33:29;;;;;;;19.83;15.18;;;12.60;99.90;;;;;;5104373;28;20039;-79
2022/10/09 02:35:55;;;;;;;24.67;17.80;;;12.60;99.90;;;;;;5107648;28;20054;-79
2022/10/09 02:38:21;;;;;;;27.20;17.25;;;12.60;99.90;;;;;;5136867;27;20028;-79
2022/10/09 02:40:47;;;;;;;23.00;17.00;;;12.60;99.90;;;;;;5102174;28;20016;-80
2022/10/09 02:43:12;;;;;;;30.55;17.75;;;12.60;99.90;;;;;;5105643;28;20020;-79
2022/10/09 02:45:38;;;;;;;24.25;16.33;;;12.60;99.90;;;;;;5104761;28;20020;-80
2022/10/09 02:48:04;;;;;;;25.55;17.88;;;12.60;99.90;;;;;;5106923;28;20034;-79
2022/10/09 02:50:30;;;;;;;26.67;18.15;;;12.50;99.90;;;;;;5109323;28;20452;-80
2022/10/09 02:52:56;;;;;;;27.83;16.65;;;12.60;99.90;;;;;;5117067;28;20019;-80
2022/10/09 02:55:21;;;;;;;27.60;16.05;;;12.60;99.90;;;;;;5114752;28;20147;-79
2022/10/09 02:57:47;;;;;;;23.42;17.10;;;12.60;99.90;;;;;;5115267;28;20123;-80
2022/10/09 03:00:14;;;;;;;25.15;16.75;;;12.50;99.90;;;;;;5112108;28;20030;-80
2022/10/09 03:02:39;;;;;;;24.42;16.63;;;12.60;99.90;;;;;;5112222;28;20372;-80
2022/10/09 03:05:06;;;;;;;22.90;14.93;;;12.50;99.90;;;;;;5113976;28;20066;-80
2022/10/09 03:07:31;;;;;;;27.33;16.63;;;12.50;99.90;;;;;;5113972;28;20054;-80
2022/10/09 03:09:57;;;;;;;24.48;14.98;;;12.50;99.90;;;;;;5117421;28;20086;-79
2022/10/09 03:12:23;;;;;;;25.88;17.25;;;12.40;99.90;;;;;;5115410;28;20055;-80
2022/10/09 03:14:49;;;;;;;29.33;15.90;;;12.40;99.90;;;;;;5114332;28;20093;-80
2022/10/09 03:17:15;;;;;;;25.13;15.70;;;12.40;99.90;;;;;;5116222;28;20027;-80
2022/10/09 03:19:40;;;;;;;21.00;16.48;;;12.40;99.90;;;;;;5134152;27;20399;-79
2022/10/09 03:22:06;;;;;;;23.35;17.00;;;12.40;99.90;;;;;;5105637;28;20051;-79
2022/10/09 03:24:32;;;;;;;21.58;16.27;;;12.40;99.90;;;;;;5116735;28;20096;-80
2022/10/09 03:26:58;;;;;;;21.45;17.20;;;12.40;99.90;;;;;;5111041;28;20016;-80
2022/10/09 03:29:24;;;;;;;24.40;16.17;;;12.30;99.90;;;;;;5114527;28;20102;-80
2022/10/09 03:31:50;;;;;;;22.42;15.80;;;12.30;99.90;;;;;;5109956;28;20020;-80
2022/10/09 03:34:16;;;;;;;23.42;15.60;;;12.30;99.90;;;;;;5116197;28;20022;-80
2022/10/09 03:36:42;;;;;;;20.75;15.98;;;12.30;99.90;;;;;;5111208;28;20398;-81
2022/10/09 03:39:08;;;;;;;20.55;15.55;;;12.30;99.90;;;;;;5115634;28;20011;-80
2022/10/09 03:41:34;;;;;;;22.42;16.23;;;12.20;99.90;;;;;;5116251;28;20023;-80
2022/10/09 03:44:00;;;;;;;23.95;16.63;;;12.20;99.90;;;;;;5107279;28;20016;-80
2022/10/09 03:46:25;;;;;;;19.63;14.52;;;12.20;99.90;;;;;;5099053;28;20398;-80
2022/10/09 03:48:51;;;;;;;32.08;17.45;;;12.20;99.90;;;;;;5098995;28;20016;-80
2022/10/09 03:51:17;;;;;;;21.20;16.00;;;12.20;99.90;;;;;;5103074;28;20028;-79
2022/10/09 03:53:43;;;;;;;22.13;15.43;;;12.20;99.90;;;;;;5134225;27;20052;-80
2022/10/09 03:56:09;;;;;;;22.58;15.52;;;12.10;99.90;;;;;;5105334;28;20109;-80
2022/10/09 03:58:34;;;;;;;21.00;15.88;;;12.10;99.90;;;;;;5116130;28;20024;-80
2022/10/09 04:01:00;;;;;;;24.50;17.23;;;12.10;99.90;;;;;;5132814;27;20036;-80
2022/10/09 04:03:26;;;;;;;21.83;15.43;;;12.10;99.90;;;;;;5105473;28;20052;-80
2022/10/09 04:05:52;;;;;;;21.15;16.95;;;12.00;99.90;;;;;;5116722;28;20022;-80
2022/10/09 04:08:18;;;;;;;29.13;16.70;;;12.10;99.90;;;;;;5116148;28;20024;-80
2022/10/09 04:10:43;;;;;;;26.23;16.70;;;12.10;99.90;;;;;;5136498;27;20435;-80
2022/10/09 04:13:09;;;;;;;20.08;16.70;;;12.10;99.90;;;;;;5106374;28;20011;-79
2022/10/09 04:15:36;;;;;;;22.70;16.98;;;12.10;99.90;;;;;;5111767;28;20046;-80
2022/10/09 04:18:02;;;;;;;22.95;15.80;;;12.10;99.90;;;;;;5116241;28;20368;-80
2022/10/09 04:20:28;;;;;;;20.33;16.20;;;12.00;99.90;;;;;;5114130;28;21489;-80
2022/10/09 04:22:54;;;;;;;22.42;15.20;;;12.00;99.90;;;;;;5116023;28;20019;-80
2022/10/09 04:25:20;;;;;;;24.98;15.32;;;12.00;99.90;;;;;;5115364;28;20471;-80
2022/10/09 04:27:45;;;;;;;24.60;17.08;;;11.90;99.90;;;;;;5099381;28;20016;-80
2022/10/09 04:30:12;;;;;;;21.35;17.00;;;11.90;99.90;;;;;;5102684;28;20040;-80
2022/10/09 04:32:38;;;;;;;31.30;17.20;;;12.00;99.90;;;;;;5115649;28;20019;-80
2022/10/09 04:35:04;;;;;;;28.02;17.45;;;11.90;99.90;;;;;;5115143;28;20036;-80
2022/10/09 04:37:30;;;;;;;26.98;15.70;;;12.00;99.90;;;;;;5108588;28;20043;-80
2022/10/09 04:39:56;;;;;;;18.75;15.82;;;11.90;99.90;;;;;;5115561;28;20028;-80
2022/10/09 04:42:21;;;;;;;21.23;15.18;;;12.00;99.90;;;;;;5109795;28;20016;-80
2022/10/09 04:44:47;;;;;;;22.40;16.33;;;12.00;99.90;;;;;;5108786;28;20042;-80
2022/10/09 04:47:13;;;;;;;22.58;17.27;;;12.00;99.90;;;;;;5116036;28;20072;-80
2022/10/09 04:49:39;;;;;;;27.67;18.13;;;12.00;99.90;;;;;;5111633;28;20020;-80
2022/10/09 04:52:04;;;;;;;22.13;16.85;;;12.00;99.90;;;;;;5115545;28;20027;-80
2022/10/09 04:54:30;;;;;;;23.65;16.50;;;12.10;99.90;;;;;;5115877;28;20513;-80
2022/10/09 04:56:56;;;;;;;25.40;17.85;;;12.00;99.90;;;;;;5115657;28;20020;-80
2022/10/09 04:59:22;;;;;;;26.63;16.30;;;12.10;99.90;;;;;;5103436;28;20492;-80
2022/10/09 05:01:48;;;;;;;21.63;16.17;;;12.10;99.90;;;;;;5099209;28;20095;-80
2022/10/09 05:04:13;;;;;;;24.05;16.55;;;12.00;99.90;;;;;;5111134;28;20026;-80
2022/10/09 05:06:39;;;;;;;24.60;17.05;;;11.90;99.90;;;;;;5102545;28;20564;-80
2022/10/09 05:09:05;;;;;;;29.50;17.05;;;11.90;99.90;;;;;;5108264;28;20020;-79
2022/10/09 05:11:31;;;;;;;24.55;16.10;;;11.90;99.90;;;;;;5111735;28;20051;-80
2022/10/09 05:13:57;;;;;;;22.85;16.50;;;11.90;99.90;;;;;;5115154;28;20070;-79
2022/10/09 05:16:27;;;;;;;22.88;15.48;;;11.90;99.90;;;;;;5116374;28;20020;-80
2022/10/09 05:18:55;;;;;;;20.27;15.02;;;11.80;99.90;;;;;;5115027;28;20023;-80
2022/10/09 05:21:21;;;;;;;21.35;14.43;;;11.80;99.90;;;;;;5118812;28;20499;-80
2022/10/09 05:23:48;;;;;;;18.05;16.08;;;11.70;99.90;;;;;;5117286;28;20485;-80
2022/10/09 05:26:16;;;;;;;24.38;16.05;;;11.70;99.90;;;;;;5119764;28;20505;-80
2022/10/09 05:28:43;;;;;;;21.60;15.68;;;11.70;99.90;;;;;;5115545;28;20050;-80
2022/10/09 05:31:13;;;;;;;22.20;15.27;;;11.70;99.90;;;;;;5109505;28;20174;-80
2022/10/09 05:33:38;;;;;;;21.67;15.73;;;11.60;99.90;;;;;;5106966;28;20052;-80
2022/10/09 05:36:05;;;;;;;18.50;16.10;;;11.60;99.90;;;;;;5115312;28;20054;-80
2022/10/09 05:38:32;;;;;;;20.80;16.17;;;11.60;99.90;;;;;;5116192;28;20455;-80
2022/10/09 05:41:01;;;;;;;21.38;16.38;;;11.60;99.90;;;;;;5113753;28;20015;-79
2022/10/09 05:43:32;;;;;;;22.45;16.25;;;11.50;99.90;;;;;;5117242;28;20072;-79
2022/10/09 05:46:09;;;;;;;21.42;16.48;;;11.50;99.90;;;;;;5104155;28;20016;-80
2022/10/09 05:48:37;;;;;;;21.65;16.15;;;11.50;99.90;;;;;;5112520;28;20030;-80
2022/10/09 05:51:21;;;;;;;20.48;15.43;;;11.40;99.90;;;;;;5111824;28;20027;-79
2022/10/09 05:53:47;;;;;;;19.45;16.25;;;11.40;99.90;;;;;;5116640;28;20380;-79
2022/10/09 05:56:15;;;;;;;19.67;16.15;;;11.40;99.90;;;;;;5114760;28;20027;-79
2022/10/09 05:58:41;;;;;;;21.58;16.98;;;11.30;99.90;;;;;;5118320;28;20492;-79
2022/10/09 06:01:07;;;;;;;20.23;17.75;;;11.30;99.90;;;;;;5112528;28;20456;-79
2022/10/09 06:03:35;;;;;;;25.02;17.25;;;11.30;99.90;;;;;;5117975;28;20483;-79
2022/10/09 06:06:02;;;;;;;26.20;17.25;;;11.40;99.90;;;;;;5117466;28;20047;-79
2022/10/09 06:08:30;;;;;;;23.00;16.20;;;11.30;99.90;;;;;;5119080;28;20452;-80
2022/10/09 06:10:56;;;;;;;20.98;17.50;;;11.30;99.90;;;;;;5115475;28;20116;-79
2022/10/09 06:13:21;;;;;;;23.23;17.77;;;11.40;99.90;;;;;;5107141;28;20027;-79
2022/10/09 06:15:52;;;;;;;25.77;19.08;;;11.40;99.90;;;;;;5108480;27;20024;-79
2022/10/09 06:18:18;;;;;;;33.28;17.90;;;11.40;99.90;;;;;;5109181;28;20027;-80
2022/10/09 06:20:58;;;;;;;34.55;19.83;;;11.40;99.90;;;;;;5109952;28;20031;-79
2022/10/09 06:23:25;;;;;;;65.80;18.67;;;11.50;99.90;;;;;;5110864;28;20095;-79
2022/10/09 06:25:56;;;;;;;52.20;19.70;;;11.60;99.90;;;;;;5112273;28;20024;-79
2022/10/09 06:28:22;;;;;;;47.42;19.38;;;11.60;99.90;;;;;;5107372;28;20028;-79
2022/10/09 06:30:49;;;;;;;29.33;19.25;;;11.60;99.90;;;;;;5114244;28;20034;-79
2022/10/09 06:33:15;;;;;;;39.80;19.17;;;11.70;99.90;;;;;;5111141;28;20507;-79
2022/10/09 06:35:41;;;;;;;27.70;18.70;;;11.70;99.90;;;;;;5117361;28;20027;-79
2022/10/09 06:38:07;;;;;;;24.95;17.90;;;11.70;99.90;;;;;;5115202;28;20035;-79
2022/10/09 06:40:37;;;;;;;28.23;17.73;;;11.80;99.90;;;;;;5117987;28;20023;-80
2022/10/09 06:43:03;;;;;;;26.58;19.15;;;11.80;99.90;;;;;;5115508;28;20067;-80
2022/10/09 06:45:30;;;;;;;24.23;19.13;;;11.80;99.90;;;;;;5118568;27;20388;-79
2022/10/09 06:47:56;;;;;;;22.75;16.88;;;11.80;99.90;;;;;;5114907;28;20078;-80
2022/10/09 06:50:22;;;;;;;21.13;17.05;;;11.80;99.90;;;;;;5109996;28;20023;-80
2022/10/09 06:52:49;;;;;;;22.90;17.55;;;11.90;99.90;;;;;;5111502;28;20035;-82
2022/10/09 06:55:14;;;;;;;23.58;17.90;;;11.90;99.90;;;;;;5099699;28;20082;-79
2022/10/09 06:57:40;;;;;;;21.75;17.88;;;12.00;99.90;;;;;;5099509;28;20035;-80
2022/10/09 07:00:06;;;;;;;22.25;16.90;;;12.10;99.90;;;;;;5103264;28;20107;-80
2022/10/09 07:02:32;;;;;;;24.40;15.75;;;12.10;99.90;;;;;;5109162;28;20028;-80
2022/10/09 07:04:58;;;;;;;24.13;15.93;;;12.20;99.90;;;;;;5117518;28;20016;-80
2022/10/09 07:07:24;;;;;;;18.17;16.27;;;12.20;99.90;;;;;;5111965;28;20495;-81
2022/10/09 07:09:51;;;;;;;19.17;15.93;;;12.30;99.90;;;;;;5112650;28;20035;-80
2022/10/09 07:12:17;;;;;;;20.25;16.63;;;12.40;99.90;;;;;;5111976;28;20028;-80
2022/10/09 07:14:43;;;;;;;19.25;17.00;;;12.40;99.90;;;;;;5114397;28;20042;-81
2022/10/09 07:17:09;;;;;;;19.60;16.00;;;12.50;99.90;;;;;;5114301;28;20020;-81
2022/10/09 07:19:35;;;;;;;19.58;16.48;;;12.70;99.90;;;;;;5116502;28;20590;-81
2022/10/09 07:22:01;;;;;;;19.17;16.52;;;12.80;99.90;;;;;;5117733;28;20019;-81
2022/10/09 07:24:27;;;;;;;24.55;16.40;;;13.00;99.90;;;;;;5114625;28;20506;-81
2022/10/09 07:26:55;;;;;;;22.05;15.27;;;13.10;99.90;;;;;;5114300;28;20020;-81
2022/10/09 07:29:22;;;;;;;22.83;14.70;;;13.20;99.90;;;;;;5115532;28;20023;-81
2022/10/09 07:31:48;;;;;;;26.17;16.40;;;13.30;99.90;;;;;;5114495;28;20130;-81
2022/10/09 07:34:15;;;;;;;17.67;13.95;;;13.50;99.90;;;;;;5112932;28;20056;-81
2022/10/09 07:36:41;;;;;;;22.45;15.73;;;13.70;99.90;;;;;;5113864;28;20062;-80
2022/10/09 07:39:07;;;;;;;16.50;13.63;;;13.70;99.90;;;;;;5114392;28;20078;-80
2022/10/09 07:41:33;;;;;;;17.00;14.10;;;13.80;99.90;;;;;;5116747;28;20039;-81
2022/10/09 07:44:00;;;;;;;15.80;12.60;;;13.90;99.90;;;;;;5116144;28;20160;-80
2022/10/09 07:46:27;;;;;;;18.58;13.45;;;14.00;99.90;;;;;;5113645;28;20018;-82
2022/10/09 07:48:53;;;;;;;15.02;11.65;;;14.10;99.90;;;;;;5114993;28;20104;-84
2022/10/09 07:51:24;;;;;;;16.48;12.35;;;14.20;99.90;;;;;;5113008;28;20558;-82
2022/10/09 07:53:50;;;;;;;12.82;11.20;;;14.20;99.90;;;;;;5105012;28;20031;-83
2022/10/09 07:56:18;;;;;;;15.90;10.82;;;14.30;99.90;;;;;;5114244;28;20023;-83
2022/10/09 07:58:55;;;;;;;12.55;11.00;;;14.30;99.90;;;;;;5110041;28;20122;-81
2022/10/09 08:01:22;;;;;;;12.35;10.05;;;14.40;99.90;;;;;;5112130;28;20077;-83
2022/10/09 08:03:49;;;;;;;11.43;10.25;;;14.50;99.90;;;;;;5111505;28;20028;-84
2022/10/09 08:06:15;;;;;;;12.52;10.45;;;14.60;99.90;;;;;;5115801;28;20020;-83
2022/10/09 08:08:41;;;;;;;14.77;10.88;;;14.60;99.90;;;;;;5114154;28;20045;-81
2022/10/09 08:11:13;;;;;;;19.40;10.15;;;14.70;99.90;;;;;;5116266;28;20048;-83
2022/10/09 08:13:40;;;;;;;13.05;10.13;;;14.80;99.90;;;;;;5115196;28;20023;-84
2022/10/09 08:16:06;;;;;;;16.35;11.40;;;14.90;99.90;;;;;;5116248;28;20024;-84
2022/10/09 08:18:32;;;;;;;12.02;10.48;;;15.00;99.90;;;;;;5114691;28;20027;-83
2022/10/09 08:21:00;;;;;;;12.07;9.35;;;15.10;99.90;;;;;;5115380;28;20499;-84
2022/10/09 08:23:27;;;;;;;15.40;9.52;;;15.30;99.90;;;;;;5119834;28;20111;-84
2022/10/09 08:25:53;;;;;;;13.40;9.88;;;15.40;99.90;;;;;;5109153;28;20095;-83
2022/10/09 08:28:19;;;;;;;13.90;10.63;;;15.50;99.90;;;;;;5115594;28;20051;-83
2022/10/09 08:30:45;;;;;;;13.00;9.02;;;15.70;99.90;;;;;;5116107;28;20027;-85
2022/10/09 08:33:11;;;;;;;12.07;9.00;;;15.80;99.90;;;;;;5113835;28;20118;-84
2022/10/09 08:35:37;;;;;;;10.93;8.73;;;15.80;99.90;;;;;;5115913;28;20026;-83
2022/10/09 08:38:03;;;;;;;12.80;8.98;;;16.00;99.90;;;;;;5117938;28;20118;-86
2022/10/09 08:40:50;;;;;;;13.25;8.40;;;16.20;99.90;;;;;;5118773;28;20055;-82
2022/10/09 08:43:22;;;;;;;14.25;8.60;;;16.30;99.90;;;;;;5117883;28;20015;-84
2022/10/09 08:45:50;;;;;;;12.85;7.68;;;16.30;99.90;;;;;;5120849;28;20083;-83
2022/10/09 08:48:22;;;;;;;14.80;7.07;;;16.50;99.90;;;;;;5118441;28;20019;-83
2022/10/09 08:50:52;;;;;;;15.43;7.60;;;16.60;99.90;;;;;;5117691;28;20081;-85
2022/10/09 08:53:35;;;;;;;11.32;7.10;;;16.80;99.90;;;;;;5120312;28;20481;-85
2022/10/09 08:56:04;;;;;;;13.40;7.15;;;16.80;99.90;;;;;;5110115;28;20029;-86
2022/10/09 08:58:38;;;;;;;9.30;6.20;;;17.00;99.90;;;;;;5120808;28;20032;-84
2022/10/09 09:01:47;;;;;;;8.95;5.97;;;17.20;99.90;;;;;;5121799;28;20442;-83
2022/10/09 09:04:30;;;;;;;10.35;6.32;;;17.30;99.90;;;;;;5108403;28;20042;-85
2022/10/09 09:07:33;;;;;;;10.55;6.20;;;17.50;99.90;;;;;;5122419;28;20015;-85
2022/10/09 09:10:05;;;;;;;13.73;6.20;;;17.60;99.90;;;;;;5114817;28;20043;-82
2022/10/09 09:12:46;;;;;;;14.80;5.35;;;17.70;99.90;;;;;;5143651;27;20116;-85
2022/10/09 09:15:34;;;;;;;7.07;5.30;;;17.80;99.90;;;;;;5113358;28;20028;-82
2022/10/09 09:18:18;;;;;;;13.25;5.60;;;18.00;99.90;;;;;;5117168;28;20620;-82
2022/10/09 09:20:55;;;;;;;9.88;5.38;;;18.10;99.90;;;;;;5118630;28;20084;-84
2022/10/09 09:23:27;;;;;;;12.80;5.93;;;18.30;99.90;;;;;;5114526;28;20387;-84
2022/10/09 09:25:53;;;;;;;9.80;4.65;;;18.40;99.90;;;;;;5118716;28;20031;-85
2022/10/09 09:28:27;;;;;;;11.20;5.00;;;18.50;99.90;;;;;;5117173;28;20027;-84
2022/10/09 09:31:02;;;;;;;15.23;5.00;;;18.50;99.90;;;;;;5119248;28;20020;-83
2022/10/09 09:33:48;;;;;;;12.43;4.85;;;18.60;99.90;;;;;;5103355;28;20028;-82
2022/10/09 09:36:37;;;;;;;11.95;4.47;;;18.70;99.90;;;;;;5101436;28;20079;-83
2022/10/09 09:39:03;;;;;;;16.30;5.60;;;18.80;99.90;;;;;;5118286;28;20046;-81
2022/10/09 09:41:29;;;;;;;11.93;4.85;;;18.90;99.90;;;;;;5118517;28;20028;-83
2022/10/09 09:43:55;;;;;;;8.43;4.53;;;19.00;99.90;;;;;;5106392;28;20008;-81
2022/10/09 09:46:24;;;;;;;6.13;3.28;;;19.10;99.90;;;;;;5105601;28;20103;-82
2022/10/09 09:48:50;;;;;;;11.88;4.93;;;19.10;99.90;;;;;;5119629;28;20051;-83
2022/10/09 09:51:18;;;;;;;14.73;3.50;;;19.30;99.90;;;;;;5116081;28;20035;-82
2022/10/09 09:53:56;;;;;;;15.63;4.70;;;19.40;99.90;;;;;;5120234;28;20024;-84
2022/10/09 09:56:39;;;;;;;10.25;4.13;;;19.40;99.90;;;;;;5115531;28;20030;-82
2022/10/09 09:59:06;;;;;;;12.55;4.70;;;19.50;99.90;;;;;;5119567;28;20115;-82
2022/10/09 10:01:34;;;;;;;10.48;4.25;;;19.50;99.90;;;;;;5110878;28;20055;-79
2022/10/09 10:04:02;;;;;;;11.65;4.60;;;19.60;99.90;;;;;;5112482;28;20099;-82
2022/10/09 10:06:40;;;;;;;13.20;4.32;;;19.60;99.90;;;;;;5118233;28;20447;-84
2022/10/09 10:09:17;;;;;;;9.43;4.80;;;19.70;99.90;;;;;;5124895;27;20031;-85
2022/10/09 10:11:56;;;;;;;12.52;4.50;;;19.80;99.90;;;;;;5116627;28;20044;-83
2022/10/09 10:14:23;;;;;;;21.42;6.68;;;19.80;99.90;;;;;;5108920;28;20027;-86
2022/10/09 10:16:51;;;;;;;11.50;3.95;;;19.80;99.90;;;;;;5114423;28;20496;-86
2022/10/09 10:19:26;;;;;;;11.07;3.80;;;19.90;99.90;;;;;;5118345;28;20055;-84
2022/10/09 10:22:02;;;;;;;10.52;4.50;;;19.90;99.90;;;;;;5118037;28;20027;-83
2022/10/09 10:24:41;;;;;;;11.75;3.72;;;19.90;99.90;;;;;;5102012;28;20382;-83
2022/10/09 10:27:19;;;;;;;11.85;3.60;;;19.90;99.90;;;;;;5106842;28;20045;-82
2022/10/09 10:29:49;;;;;;;10.63;3.60;;;20.00;99.90;;;;;;5139523;27;20032;-82
2022/10/09 10:32:20;;;;;;;11.30;3.33;;;20.00;99.90;;;;;;5112407;28;20035;-84
2022/10/09 10:34:52;;;;;;;15.05;4.55;;;20.10;99.90;;;;;;5108606;28;20055;-82
2022/10/09 10:37:29;;;;;;;13.32;3.90;;;20.20;99.90;;;;;;5118231;28;20110;-86
2022/10/09 10:40:04;;;;;;;7.90;4.05;;;20.20;99.90;;;;;;5117012;28;20452;-85
2022/10/09 10:42:52;;;;;;;9.70;3.60;;;20.30;99.90;;;;;;5111133;28;20067;-85
2022/10/09 10:45:36;;;;;;;11.40;4.00;;;20.40;99.90;;;;;;5117194;28;20028;-85
2022/10/09 10:48:04;;;;;;;12.30;3.70;;;20.40;99.90;;;;;;5119279;27;20020;-84
2022/10/09 10:50:36;;;;;;;13.50;4.55;;;20.40;99.90;;;;;;5117306;28;20026;-80
2022/10/09 10:53:39;;;;;;;16.80;4.07;;;20.40;99.90;;;;;;5115472;28;20511;-82
2022/10/09 10:56:33;;;;;;;9.85;3.33;;;20.40;99.90;;;;;;5117908;28;20106;-85
2022/10/09 10:59:23;;;;;;;6.32;3.08;;;20.50;99.90;;;;;;5098683;28;20045;-84
2022/10/09 11:01:54;;;;;;;;;;;20.50;99.90;;;;;;5105341;28;20039;-82
2022/10/09 11:04:54;;;;;;;11.02;3.88;;;20.60;99.90;;;;;;5118179;28;19941;-83
2022/10/09 11:07:28;;;;;;;12.70;4.15;;;20.60;99.90;;;;;;5115971;28;20024;-85
2022/10/09 11:09:59;;;;;;;11.18;4.03;;;20.70;99.90;;;;;;5116885;28;20132;-86
2022/10/09 11:12:36;;;;;;;10.60;3.35;;;20.70;99.90;;;;;;5114949;28;20148;-84
2022/10/09 11:15:22;;;;;;;11.32;3.85;;;20.70;99.90;;;;;;5113843;28;20031;-85
2022/10/09 11:17:57;;;;;;;12.82;3.38;;;20.70;99.90;;;;;;5107261;28;20062;-84
2022/10/09 11:20:25;;;;;;;12.90;4.15;;;20.70;99.90;;;;;;5116568;27;20020;-84
2022/10/09 11:23:15;;;;;;;9.23;3.53;;;20.80;99.90;;;;;;5118278;28;20099;-83
2022/10/09 11:25:44;;;;;;;10.63;3.40;;;20.80;99.90;;;;;;5099840;28;20403;-84
2022/10/09 11:28:42;;;;;;;13.52;3.83;;;20.90;99.90;;;;;;5132309;27;20024;-82
2022/10/09 11:31:19;;;;;;;8.20;3.40;;;21.00;99.90;;;;;;5106957;28;20035;-80
2022/10/09 11:33:49;;;;;;;11.15;3.45;;;21.10;99.90;;;;;;5114068;28;20051;-82
2022/10/09 11:36:33;;;;;;;9.07;3.47;;;21.20;99.90;;;;;;5114658;28;20043;-84
2022/10/09 11:39:04;;;;;;;12.35;3.53;;;21.20;99.90;;;;;;5105779;28;20386;-83
2022/10/09 11:41:31;;;;;;;7.68;4.07;;;21.20;99.90;;;;;;5110709;28;20096;-85
2022/10/09 11:44:18;;;;;;;8.65;3.05;;;21.20;99.90;;;;;;5113317;28;20023;-85
2022/10/09 11:47:07;;;;;;;6.75;2.67;;;21.30;99.90;;;;;;5112901;28;20042;-82
2022/10/09 11:49:38;;;;;;;14.10;3.45;;;21.30;99.90;;;;;;5113835;28;20364;-82
2022/10/09 11:52:10;;;;;;;10.00;3.20;;;21.40;99.90;;;;;;5116777;28;20498;-83
2022/10/09 11:54:36;;;;;;;13.52;4.28;;;21.40;99.90;;;;;;5116165;28;20016;-85
2022/10/09 11:57:04;;;;;;;11.55;3.78;;;21.50;99.90;;;;;;5118152;28;20068;-84
2022/10/09 11:59:34;;;;;;;11.48;3.70;;;21.40;99.90;;;;;;5103224;28;20098;-84
2022/10/09 12:02:11;;;;;;;;;;;21.40;99.90;;;;;;5107904;28;20019;-85
2022/10/09 12:04:37;;;;;;;10.98;3.35;;;21.40;99.90;;;;;;5113877;28;19911;-83
2022/10/09 12:07:08;;;;;;;6.18;3.03;;;21.50;99.90;;;;;;5110920;28;20020;-83
2022/10/09 12:09:41;;;;;;;15.32;4.82;;;21.50;99.90;;;;;;5115556;28;20012;-82
2022/10/09 12:12:15;;;;;;;12.65;3.30;;;21.50;99.90;;;;;;5113578;28;20117;-83
2022/10/09 12:14:44;;;;;;;7.68;3.05;;;21.60;99.90;;;;;;5141656;27;20020;-82
2022/10/09 12:17:22;;;;;;;8.77;3.38;;;21.70;99.90;;;;;;5111697;28;20034;-83
2022/10/09 12:20:09;;;;;;;8.40;3.38;;;21.80;99.90;;;;;;5113229;28;20099;-80
2022/10/09 12:22:41;;;;;;;6.65;3.08;;;21.80;99.90;;;;;;5144194;27;20103;-86
2022/10/09 12:25:37;;;;;;;9.90;3.38;;;21.70;99.90;;;;;;5107686;28;21480;-85
2022/10/09 12:28:03;;;;;;;10.57;2.83;;;21.70;99.90;;;;;;5111635;28;20040;-85
2022/10/09 12:30:39;;;;;;;7.82;3.10;;;21.70;99.90;;;;;;5137021;27;20096;-85
2022/10/09 12:33:14;;;;;;;8.50;3.40;;;21.70;99.90;;;;;;5120649;28;20050;-86
2022/10/09 12:35:44;;;;;;;9.13;3.17;;;21.80;99.90;;;;;;5109070;28;20024;-85
2022/10/09 12:38:27;;;;;;;13.17;3.63;;;21.80;99.90;;;;;;5107961;28;20168;-85
2022/10/09 12:40:57;;;;;;;6.30;2.90;;;21.80;99.90;;;;;;5116599;28;20788;-85
2022/10/09 12:43:23;;;;;;;6.90;2.50;;;21.70;99.90;;;;;;5118589;27;20535;-84
2022/10/09 12:45:51;;;;;;;14.10;3.05;;;21.80;99.90;;;;;;5102755;28;20013;-83
2022/10/09 12:48:21;;;;;;;5.60;2.90;;;21.80;99.90;;;;;;5115520;28;20018;-84